KBMT

Beaumont Municipal Airport

Beaumont, Texas, USA
METAR KBMT 230055Z AUTO 00000KT 10SM CLR 27/21 A2996 RMK AO2 T02680207
Observed Flight Rules
May-23 @ 00:55 UTC (29 minutes ago) Visual Flight Rules
Visibility Clouds
10 miles
  • Clear skies
Temperatures Readings
Current 27°C / 81°F
Dewpoint 21°C / 70°F
Humidity 70%
Altimeter 29.96" Hg
Pressure 1015 hPa
Elevation 10
METAR KBMT 230055Z AUTO 00000KT 10SM CLR 27/21 A2996 RMK AO2 T02680207
Observed Flight Rules
May-23 @ 00:55 UTC
(29 minutes ago)
VFR
Clouds
  • Clear skies
Temperature Dewpoint
27°C / 81°F 21°C / 70°F
Humidity Altimeter Pressure
70% 29.96" Hg 1015 hPa